sensor_id;sensor_type;location;lat;lon;timestamp;P1;durP1;ratioP1;P2;durP2;ratioP2
75356;SDS011;63946;51.986;5.930;2023-09-07T00:01:00;3.95;;;3.30;;
75356;SDS011;63946;51.986;5.930;2023-09-07T00:03:30;4.35;;;3.30;;
75356;SDS011;63946;51.986;5.930;2023-09-07T00:05:59;3.72;;;2.92;;
75356;SDS011;63946;51.986;5.930;2023-09-07T00:08:28;3.95;;;2.72;;
75356;SDS011;63946;51.986;5.930;2023-09-07T00:11:08;3.97;;;3.40;;
75356;SDS011;63946;51.986;5.930;2023-09-07T00:13:37;3.63;;;3.22;;
75356;SDS011;63946;51.986;5.930;2023-09-07T00:16:06;3.90;;;3.20;;
75356;SDS011;63946;51.986;5.930;2023-09-07T00:18:36;3.70;;;3.40;;
75356;SDS011;63946;51.986;5.930;2023-09-07T00:21:05;3.75;;;3.33;;
75356;SDS011;63946;51.986;5.930;2023-09-07T00:23:34;4.75;;;3.50;;
75356;SDS011;63946;51.986;5.930;2023-09-07T00:26:03;4.93;;;3.40;;
75356;SDS011;63946;51.986;5.930;2023-09-07T00:28:31;3.83;;;3.25;;
75356;SDS011;63946;51.986;5.930;2023-09-07T00:31:00;3.90;;;3.35;;
75356;SDS011;63946;51.986;5.930;2023-09-07T00:33:29;6.28;;;3.25;;
75356;SDS011;63946;51.986;5.930;2023-09-07T00:35:58;3.45;;;3.15;;
75356;SDS011;63946;51.986;5.930;2023-09-07T00:38:29;4.03;;;3.60;;
75356;SDS011;63946;51.986;5.930;2023-09-07T00:40:58;3.42;;;3.10;;
75356;SDS011;63946;51.986;5.930;2023-09-07T00:43:27;3.80;;;3.22;;
75356;SDS011;63946;51.986;5.930;2023-09-07T00:45:56;3.47;;;3.17;;
75356;SDS011;63946;51.986;5.930;2023-09-07T00:48:25;4.07;;;3.25;;
75356;SDS011;63946;51.986;5.930;2023-09-07T00:50:54;6.60;;;4.30;;
75356;SDS011;63946;51.986;5.930;2023-09-07T00:53:26;4.20;;;3.63;;
75356;SDS011;63946;51.986;5.930;2023-09-07T00:55:56;4.45;;;3.70;;
75356;SDS011;63946;51.986;5.930;2023-09-07T00:58:25;4.93;;;3.85;;
75356;SDS011;63946;51.986;5.930;2023-09-07T01:00:55;5.25;;;3.78;;
75356;SDS011;63946;51.986;5.930;2023-09-07T01:03:24;3.95;;;3.55;;
75356;SDS011;63946;51.986;5.930;2023-09-07T01:05:58;4.32;;;3.15;;
75356;SDS011;63946;51.986;5.930;2023-09-07T01:08:35;4.38;;;3.13;;
75356;SDS011;63946;51.986;5.930;2023-09-07T01:11:16;4.05;;;3.28;;
75356;SDS011;63946;51.986;5.930;2023-09-07T01:13:50;3.55;;;3.25;;
75356;SDS011;63946;51.986;5.930;2023-09-07T01:16:21;4.68;;;3.63;;
75356;SDS011;63946;51.986;5.930;2023-09-07T01:18:50;6.07;;;3.50;;
75356;SDS011;63946;51.986;5.930;2023-09-07T01:21:19;3.72;;;3.30;;
75356;SDS011;63946;51.986;5.930;2023-09-07T01:23:50;3.53;;;3.17;;
75356;SDS011;63946;51.986;5.930;2023-09-07T01:26:20;6.45;;;4.35;;
75356;SDS011;63946;51.986;5.930;2023-09-07T01:28:49;4.43;;;3.20;;
75356;SDS011;63946;51.986;5.930;2023-09-07T01:31:21;4.32;;;3.80;;
75356;SDS011;63946;51.986;5.930;2023-09-07T01:33:50;3.88;;;3.55;;
75356;SDS011;63946;51.986;5.930;2023-09-07T01:36:19;6.35;;;3.58;;
75356;SDS011;63946;51.986;5.930;2023-09-07T01:38:48;6.75;;;4.22;;
75356;SDS011;63946;51.986;5.930;2023-09-07T01:41:17;5.13;;;3.70;;
75356;SDS011;63946;51.986;5.930;2023-09-07T01:43:46;3.88;;;3.47;;
75356;SDS011;63946;51.986;5.930;2023-09-07T01:46:14;5.88;;;3.97;;
75356;SDS011;63946;51.986;5.930;2023-09-07T01:48:43;6.15;;;3.90;;
75356;SDS011;63946;51.986;5.930;2023-09-07T01:51:12;5.50;;;4.00;;
75356;SDS011;63946;51.986;5.930;2023-09-07T01:53:42;7.32;;;4.60;;
75356;SDS011;63946;51.986;5.930;2023-09-07T01:56:11;4.13;;;3.40;;
75356;SDS011;63946;51.986;5.930;2023-09-07T01:58:40;4.65;;;3.70;;
75356;SDS011;63946;51.986;5.930;2023-09-07T02:01:25;8.10;;;4.30;;
75356;SDS011;63946;51.986;5.930;2023-09-07T02:03:56;4.95;;;4.22;;
75356;SDS011;63946;51.986;5.930;2023-09-07T02:06:27;5.57;;;4.47;;
75356;SDS011;63946;51.986;5.930;2023-09-07T02:08:56;6.68;;;3.85;;
75356;SDS011;63946;51.986;5.930;2023-09-07T02:11:25;4.95;;;3.88;;
75356;SDS011;63946;51.986;5.930;2023-09-07T02:13:54;5.00;;;3.53;;
75356;SDS011;63946;51.986;5.930;2023-09-07T02:16:23;4.88;;;3.90;;
75356;SDS011;63946;51.986;5.930;2023-09-07T02:18:59;4.45;;;3.70;;
75356;SDS011;63946;51.986;5.930;2023-09-07T02:21:32;4.47;;;4.07;;
75356;SDS011;63946;51.986;5.930;2023-09-07T02:24:01;4.15;;;3.75;;
75356;SDS011;63946;51.986;5.930;2023-09-07T02:26:30;5.30;;;3.47;;
75356;SDS011;63946;51.986;5.930;2023-09-07T02:28:59;4.75;;;4.22;;
75356;SDS011;63946;51.986;5.930;2023-09-07T02:31:31;5.75;;;4.03;;
75356;SDS011;63946;51.986;5.930;2023-09-07T02:33:59;4.47;;;4.07;;
75356;SDS011;63946;51.986;5.930;2023-09-07T02:36:29;5.57;;;4.18;;
75356;SDS011;63946;51.986;5.930;2023-09-07T02:38:58;4.15;;;3.70;;
75356;SDS011;63946;51.986;5.930;2023-09-07T02:41:27;5.00;;;4.57;;
75356;SDS011;63946;51.986;5.930;2023-09-07T02:43:56;5.18;;;4.35;;
75356;SDS011;63946;51.986;5.930;2023-09-07T02:46:25;3.95;;;3.63;;
75356;SDS011;63946;51.986;5.930;2023-09-07T02:48:54;5.10;;;4.10;;
75356;SDS011;63946;51.986;5.930;2023-09-07T02:51:25;5.05;;;4.43;;
75356;SDS011;63946;51.986;5.930;2023-09-07T02:53:56;4.47;;;4.05;;
75356;SDS011;63946;51.986;5.930;2023-09-07T02:56:25;5.80;;;3.90;;
75356;SDS011;63946;51.986;5.930;2023-09-07T02:58:54;4.78;;;4.15;;
75356;SDS011;63946;51.986;5.930;2023-09-07T03:01:24;6.32;;;4.15;;
75356;SDS011;63946;51.986;5.930;2023-09-07T03:03:53;5.47;;;3.88;;
75356;SDS011;63946;51.986;5.930;2023-09-07T03:06:22;6.20;;;4.30;;
75356;SDS011;63946;51.986;5.930;2023-09-07T03:08:52;5.22;;;4.72;;
75356;SDS011;63946;51.986;5.930;2023-09-07T03:11:22;5.72;;;4.43;;
75356;SDS011;63946;51.986;5.930;2023-09-07T03:13:51;4.95;;;4.35;;
75356;SDS011;63946;51.986;5.930;2023-09-07T03:16:21;4.72;;;4.22;;
75356;SDS011;63946;51.986;5.930;2023-09-07T03:18:54;4.95;;;3.90;;
75356;SDS011;63946;51.986;5.930;2023-09-07T03:21:23;6.57;;;4.30;;
75356;SDS011;63946;51.986;5.930;2023-09-07T03:23:56;4.40;;;4.00;;
75356;SDS011;63946;51.986;5.930;2023-09-07T03:26:26;7.03;;;4.80;;
75356;SDS011;63946;51.986;5.930;2023-09-07T03:28:55;5.22;;;4.03;;
75356;SDS011;63946;51.986;5.930;2023-09-07T03:31:24;4.88;;;4.15;;
75356;SDS011;63946;51.986;5.930;2023-09-07T03:33:53;5.03;;;4.57;;
75356;SDS011;63946;51.986;5.930;2023-09-07T03:36:22;4.80;;;3.95;;
75356;SDS011;63946;51.986;5.930;2023-09-07T03:38:50;5.05;;;4.55;;
75356;SDS011;63946;51.986;5.930;2023-09-07T03:41:19;5.55;;;4.28;;
75356;SDS011;63946;51.986;5.930;2023-09-07T03:43:48;5.43;;;4.40;;
75356;SDS011;63946;51.986;5.930;2023-09-07T03:46:17;5.65;;;4.78;;
75356;SDS011;63946;51.986;5.930;2023-09-07T03:48:46;5.90;;;4.88;;
75356;SDS011;63946;51.986;5.930;2023-09-07T03:51:15;5.18;;;3.90;;
75356;SDS011;63946;51.986;5.930;2023-09-07T03:53:43;6.10;;;4.28;;
75356;SDS011;63946;51.986;5.930;2023-09-07T03:56:12;5.65;;;4.32;;
75356;SDS011;63946;51.986;5.930;2023-09-07T03:58:41;5.05;;;4.05;;
75356;SDS011;63946;51.986;5.930;2023-09-07T04:01:10;5.28;;;4.35;;
75356;SDS011;63946;51.986;5.930;2023-09-07T04:03:39;4.63;;;4.15;;
75356;SDS011;63946;51.986;5.930;2023-09-07T04:06:08;5.75;;;4.28;;
75356;SDS011;63946;51.986;5.930;2023-09-07T04:08:37;6.57;;;4.38;;
75356;SDS011;63946;51.986;5.930;2023-09-07T04:11:06;6.32;;;4.53;;
75356;SDS011;63946;51.986;5.930;2023-09-07T04:13:35;5.43;;;4.60;;
75356;SDS011;63946;51.986;5.930;2023-09-07T04:16:04;7.60;;;4.22;;
75356;SDS011;63946;51.986;5.930;2023-09-07T04:18:33;4.63;;;4.13;;
75356;SDS011;63946;51.986;5.930;2023-09-07T04:21:08;4.47;;;3.70;;
75356;SDS011;63946;51.986;5.930;2023-09-07T04:23:37;6.93;;;5.18;;
75356;SDS011;63946;51.986;5.930;2023-09-07T04:26:07;4.68;;;4.15;;
75356;SDS011;63946;51.986;5.930;2023-09-07T04:28:37;5.18;;;4.15;;
75356;SDS011;63946;51.986;5.930;2023-09-07T04:31:06;4.97;;;4.47;;
75356;SDS011;63946;51.986;5.930;2023-09-07T04:33:35;8.57;;;4.93;;
75356;SDS011;63946;51.986;5.930;2023-09-07T04:38:44;5.82;;;5.22;;
75356;SDS011;63946;51.986;5.930;2023-09-07T04:41:13;6.25;;;4.20;;
75356;SDS011;63946;51.986;5.930;2023-09-07T04:43:42;6.65;;;4.50;;
75356;SDS011;63946;51.986;5.930;2023-09-07T04:46:12;5.80;;;4.97;;
75356;SDS011;63946;51.986;5.930;2023-09-07T04:51:11;4.30;;;3.90;;
75356;SDS011;63946;51.986;5.930;2023-09-07T04:53:40;6.35;;;4.93;;
75356;SDS011;63946;51.986;5.930;2023-09-07T04:56:09;5.72;;;4.75;;
75356;SDS011;63946;51.986;5.930;2023-09-07T04:58:38;6.63;;;4.72;;
75356;SDS011;63946;51.986;5.930;2023-09-07T05:01:09;7.05;;;5.50;;
75356;SDS011;63946;51.986;5.930;2023-09-07T05:03:40;8.00;;;5.20;;
75356;SDS011;63946;51.986;5.930;2023-09-07T05:06:10;5.55;;;4.32;;
75356;SDS011;63946;51.986;5.930;2023-09-07T05:11:10;6.03;;;4.95;;
75356;SDS011;63946;51.986;5.930;2023-09-07T05:13:39;6.75;;;5.40;;
75356;SDS011;63946;51.986;5.930;2023-09-07T05:16:10;6.10;;;5.40;;
75356;SDS011;63946;51.986;5.930;2023-09-07T05:18:40;5.72;;;5.05;;
75356;SDS011;63946;51.986;5.930;2023-09-07T05:21:13;8.25;;;4.40;;
75356;SDS011;63946;51.986;5.930;2023-09-07T05:23:42;5.28;;;4.10;;
75356;SDS011;63946;51.986;5.930;2023-09-07T05:26:11;5.50;;;4.97;;
75356;SDS011;63946;51.986;5.930;2023-09-07T05:28:40;7.03;;;5.45;;
75356;SDS011;63946;51.986;5.930;2023-09-07T05:31:11;5.88;;;5.03;;
75356;SDS011;63946;51.986;5.930;2023-09-07T05:33:42;5.88;;;4.13;;
75356;SDS011;63946;51.986;5.930;2023-09-07T05:36:11;5.38;;;4.70;;
75356;SDS011;63946;51.986;5.930;2023-09-07T05:38:40;5.85;;;4.75;;
75356;SDS011;63946;51.986;5.930;2023-09-07T05:41:09;5.72;;;5.13;;
75356;SDS011;63946;51.986;5.930;2023-09-07T05:43:38;6.97;;;5.28;;
75356;SDS011;63946;51.986;5.930;2023-09-07T05:46:07;6.63;;;5.45;;
75356;SDS011;63946;51.986;5.930;2023-09-07T05:48:36;6.13;;;5.03;;
75356;SDS011;63946;51.986;5.930;2023-09-07T05:51:06;9.77;;;5.97;;
75356;SDS011;63946;51.986;5.930;2023-09-07T05:53:35;7.07;;;5.22;;
75356;SDS011;63946;51.986;5.930;2023-09-07T05:56:03;7.60;;;4.78;;
75356;SDS011;63946;51.986;5.930;2023-09-07T05:58:33;6.45;;;4.93;;
75356;SDS011;63946;51.986;5.930;2023-09-07T06:01:04;5.47;;;4.93;;
75356;SDS011;63946;51.986;5.930;2023-09-07T06:03:36;7.15;;;5.18;;
75356;SDS011;63946;51.986;5.930;2023-09-07T06:06:05;5.75;;;5.13;;
75356;SDS011;63946;51.986;5.930;2023-09-07T06:08:34;8.23;;;5.70;;
75356;SDS011;63946;51.986;5.930;2023-09-07T06:11:02;7.93;;;4.88;;
75356;SDS011;63946;51.986;5.930;2023-09-07T06:13:32;7.47;;;6.28;;
75356;SDS011;63946;51.986;5.930;2023-09-07T06:16:01;10.82;;;6.70;;
75356;SDS011;63946;51.986;5.930;2023-09-07T06:18:30;6.57;;;5.60;;
75356;SDS011;63946;51.986;5.930;2023-09-07T06:20:59;8.32;;;5.53;;
75356;SDS011;63946;51.986;5.930;2023-09-07T06:23:27;7.20;;;5.97;;
75356;SDS011;63946;51.986;5.930;2023-09-07T06:25:57;6.70;;;5.90;;
75356;SDS011;63946;51.986;5.930;2023-09-07T06:28:27;7.22;;;5.82;;
75356;SDS011;63946;51.986;5.930;2023-09-07T06:30:56;6.93;;;5.35;;
75356;SDS011;63946;51.986;5.930;2023-09-07T06:33:24;7.32;;;6.15;;
75356;SDS011;63946;51.986;5.930;2023-09-07T06:35:53;7.50;;;6.43;;
75356;SDS011;63946;51.986;5.930;2023-09-07T06:38:27;8.10;;;6.22;;
75356;SDS011;63946;51.986;5.930;2023-09-07T06:40:55;8.23;;;6.13;;
75356;SDS011;63946;51.986;5.930;2023-09-07T17:31:34;7.97;;;4.82;;
75356;SDS011;63946;51.986;5.930;2023-09-07T17:34:03;6.07;;;4.78;;
75356;SDS011;63946;51.986;5.930;2023-09-07T17:36:34;4.53;;;4.13;;
75356;SDS011;63946;51.986;5.930;2023-09-07T17:39:03;6.70;;;4.78;;
75356;SDS011;63946;51.986;5.930;2023-09-07T17:41:32;6.95;;;4.90;;
75356;SDS011;63946;51.986;5.930;2023-09-07T17:44:03;4.65;;;4.15;;
75356;SDS011;63946;51.986;5.930;2023-09-07T17:46:35;6.80;;;4.20;;
75356;SDS011;63946;51.986;5.930;2023-09-07T17:49:11;5.80;;;4.40;;
75356;SDS011;63946;51.986;5.930;2023-09-07T17:51:40;8.05;;;4.95;;
75356;SDS011;63946;51.986;5.930;2023-09-07T17:54:11;5.20;;;4.70;;
75356;SDS011;63946;51.986;5.930;2023-09-07T17:56:40;7.45;;;5.15;;
75356;SDS011;63946;51.986;5.930;2023-09-07T17:59:22;5.85;;;4.78;;
75356;SDS011;63946;51.986;5.930;2023-09-07T18:01:53;4.70;;;4.30;;
75356;SDS011;63946;51.986;5.930;2023-09-07T18:04:22;4.95;;;4.40;;
75356;SDS011;63946;51.986;5.930;2023-09-07T18:06:52;5.25;;;4.63;;
75356;SDS011;63946;51.986;5.930;2023-09-07T18:09:21;4.97;;;4.57;;
75356;SDS011;63946;51.986;5.930;2023-09-07T18:11:50;5.40;;;4.85;;
75356;SDS011;63946;51.986;5.930;2023-09-07T18:14:19;5.25;;;4.50;;
75356;SDS011;63946;51.986;5.930;2023-09-07T18:16:49;5.45;;;4.15;;
75356;SDS011;63946;51.986;5.930;2023-09-07T18:19:19;6.18;;;4.15;;
75356;SDS011;63946;51.986;5.930;2023-09-07T18:21:48;6.72;;;4.75;;
75356;SDS011;63946;51.986;5.930;2023-09-07T18:24:17;4.45;;;4.05;;
75356;SDS011;63946;51.986;5.930;2023-09-07T18:26:46;5.35;;;4.85;;
75356;SDS011;63946;51.986;5.930;2023-09-07T18:29:16;5.18;;;4.00;;
75356;SDS011;63946;51.986;5.930;2023-09-07T18:31:46;5.50;;;3.60;;
75356;SDS011;63946;51.986;5.930;2023-09-07T18:34:15;5.68;;;4.32;;
75356;SDS011;63946;51.986;5.930;2023-09-07T18:36:44;4.68;;;4.28;;
75356;SDS011;63946;51.986;5.930;2023-09-07T18:39:13;5.53;;;4.30;;
75356;SDS011;63946;51.986;5.930;2023-09-07T18:41:41;5.05;;;4.07;;
75356;SDS011;63946;51.986;5.930;2023-09-07T18:44:13;4.53;;;4.10;;
75356;SDS011;63946;51.986;5.930;2023-09-07T18:46:42;5.68;;;4.10;;
75356;SDS011;63946;51.986;5.930;2023-09-07T18:49:11;6.32;;;4.70;;
75356;SDS011;63946;51.986;5.930;2023-09-07T18:51:40;5.57;;;4.57;;
75356;SDS011;63946;51.986;5.930;2023-09-07T18:54:09;4.82;;;4.40;;
75356;SDS011;63946;51.986;5.930;2023-09-07T18:56:38;5.38;;;4.13;;
75356;SDS011;63946;51.986;5.930;2023-09-07T18:59:07;4.68;;;4.00;;
75356;SDS011;63946;51.986;5.930;2023-09-07T19:01:38;4.75;;;4.22;;
75356;SDS011;63946;51.986;5.930;2023-09-07T19:04:08;4.60;;;4.20;;
75356;SDS011;63946;51.986;5.930;2023-09-07T19:06:37;4.78;;;4.30;;
75356;SDS011;63946;51.986;5.930;2023-09-07T19:09:07;5.03;;;4.30;;
75356;SDS011;63946;51.986;5.930;2023-09-07T19:11:40;4.90;;;4.50;;
75356;SDS011;63946;51.986;5.930;2023-09-07T19:14:09;5.05;;;4.55;;
75356;SDS011;63946;51.986;5.930;2023-09-07T19:16:38;5.05;;;4.55;;
75356;SDS011;63946;51.986;5.930;2023-09-07T19:19:06;6.47;;;4.85;;
75356;SDS011;63946;51.986;5.930;2023-09-07T19:21:35;4.60;;;4.15;;
75356;SDS011;63946;51.986;5.930;2023-09-07T19:24:05;5.22;;;4.55;;
75356;SDS011;63946;51.986;5.930;2023-09-07T19:26:35;5.28;;;4.78;;
75356;SDS011;63946;51.986;5.930;2023-09-07T19:29:06;5.95;;;4.47;;
75356;SDS011;63946;51.986;5.930;2023-09-07T19:31:37;7.45;;;4.53;;
75356;SDS011;63946;51.986;5.930;2023-09-07T19:34:06;6.65;;;4.85;;
75356;SDS011;63946;51.986;5.930;2023-09-07T19:36:36;5.30;;;4.80;;
75356;SDS011;63946;51.986;5.930;2023-09-07T19:39:05;6.15;;;4.28;;
75356;SDS011;63946;51.986;5.930;2023-09-07T19:41:43;8.27;;;4.38;;
75356;SDS011;63946;51.986;5.930;2023-09-07T19:44:14;5.28;;;3.60;;
75356;SDS011;63946;51.986;5.930;2023-09-07T19:46:43;4.70;;;4.20;;
75356;SDS011;63946;51.986;5.930;2023-09-07T19:49:12;4.38;;;3.95;;
75356;SDS011;63946;51.986;5.930;2023-09-07T19:51:43;6.00;;;4.78;;
75356;SDS011;63946;51.986;5.930;2023-09-07T19:54:13;6.35;;;4.28;;
75356;SDS011;63946;51.986;5.930;2023-09-07T19:56:42;5.80;;;4.78;;
75356;SDS011;63946;51.986;5.930;2023-09-07T19:59:11;7.20;;;4.78;;
75356;SDS011;63946;51.986;5.930;2023-09-07T20:04:23;5.68;;;4.43;;
75356;SDS011;63946;51.986;5.930;2023-09-07T20:06:53;5.28;;;4.78;;
75356;SDS011;63946;51.986;5.930;2023-09-07T20:09:21;8.32;;;5.20;;
75356;SDS011;63946;51.986;5.930;2023-09-07T20:11:55;9.00;;;5.10;;
75356;SDS011;63946;51.986;5.930;2023-09-07T20:14:27;7.05;;;4.97;;
75356;SDS011;63946;51.986;5.930;2023-09-07T20:16:56;5.03;;;4.30;;
75356;SDS011;63946;51.986;5.930;2023-09-07T20:19:29;6.35;;;5.03;;
75356;SDS011;63946;51.986;5.930;2023-09-07T20:22:10;7.15;;;4.97;;
75356;SDS011;63946;51.986;5.930;2023-09-07T20:24:41;7.63;;;5.15;;
75356;SDS011;63946;51.986;5.930;2023-09-07T20:27:10;6.15;;;4.68;;
75356;SDS011;63946;51.986;5.930;2023-09-07T20:29:39;9.38;;;5.03;;
75356;SDS011;63946;51.986;5.930;2023-09-07T20:32:08;5.07;;;4.57;;
75356;SDS011;63946;51.986;5.930;2023-09-07T20:34:37;6.47;;;4.82;;
75356;SDS011;63946;51.986;5.930;2023-09-07T20:37:06;5.45;;;4.85;;
75356;SDS011;63946;51.986;5.930;2023-09-07T20:39:35;7.40;;;4.63;;
75356;SDS011;63946;51.986;5.930;2023-09-07T20:42:07;5.63;;;5.13;;
75356;SDS011;63946;51.986;5.930;2023-09-07T20:44:36;7.05;;;4.78;;
75356;SDS011;63946;51.986;5.930;2023-09-07T20:47:05;6.95;;;4.57;;
75356;SDS011;63946;51.986;5.930;2023-09-07T20:49:34;5.57;;;4.90;;
75356;SDS011;63946;51.986;5.930;2023-09-07T20:52:03;5.90;;;4.65;;
75356;SDS011;63946;51.986;5.930;2023-09-07T20:54:32;4.97;;;4.47;;
75356;SDS011;63946;51.986;5.930;2023-09-07T20:57:01;7.50;;;5.13;;
75356;SDS011;63946;51.986;5.930;2023-09-07T20:59:29;7.05;;;4.75;;
75356;SDS011;63946;51.986;5.930;2023-09-07T21:01:58;4.97;;;4.47;;
75356;SDS011;63946;51.986;5.930;2023-09-07T21:04:27;8.13;;;4.03;;
75356;SDS011;63946;51.986;5.930;2023-09-07T21:06:56;5.03;;;4.53;;
75356;SDS011;63946;51.986;5.930;2023-09-07T21:09:28;5.80;;;5.20;;
75356;SDS011;63946;51.986;5.930;2023-09-07T21:11:57;5.95;;;5.10;;
75356;SDS011;63946;51.986;5.930;2023-09-07T21:14:28;5.75;;;5.15;;
75356;SDS011;63946;51.986;5.930;2023-09-07T21:16:57;5.40;;;4.85;;
75356;SDS011;63946;51.986;5.930;2023-09-07T21:19:26;4.95;;;4.53;;
75356;SDS011;63946;51.986;5.930;2023-09-07T21:21:55;5.70;;;5.10;;
75356;SDS011;63946;51.986;5.930;2023-09-07T21:24:24;6.22;;;4.68;;
75356;SDS011;63946;51.986;5.930;2023-09-07T21:26:53;5.88;;;4.93;;
75356;SDS011;63946;51.986;5.930;2023-09-07T21:29:25;5.03;;;4.53;;
75356;SDS011;63946;51.986;5.930;2023-09-07T21:31:53;7.40;;;4.28;;
75356;SDS011;63946;51.986;5.930;2023-09-07T21:34:22;5.43;;;4.93;;
75356;SDS011;63946;51.986;5.930;2023-09-07T21:36:51;5.03;;;4.45;;
75356;SDS011;63946;51.986;5.930;2023-09-07T21:39:20;6.43;;;5.15;;
75356;SDS011;63946;51.986;5.930;2023-09-07T21:41:49;5.38;;;4.18;;
75356;SDS011;63946;51.986;5.930;2023-09-07T21:44:20;9.02;;;5.45;;
75356;SDS011;63946;51.986;5.930;2023-09-07T21:51:48;5.32;;;4.82;;
75356;SDS011;63946;51.986;5.930;2023-09-07T21:54:17;5.22;;;4.38;;
75356;SDS011;63946;51.986;5.930;2023-09-07T21:56:46;6.88;;;4.95;;
75356;SDS011;63946;51.986;5.930;2023-09-07T21:59:15;5.15;;;4.65;;
75356;SDS011;63946;51.986;5.930;2023-09-07T22:01:44;4.65;;;3.60;;
75356;SDS011;63946;51.986;5.930;2023-09-07T22:04:12;7.75;;;4.60;;
75356;SDS011;63946;51.986;5.930;2023-09-07T22:06:44;6.07;;;4.35;;
75356;SDS011;63946;51.986;5.930;2023-09-07T22:09:13;5.78;;;5.00;;
75356;SDS011;63946;51.986;5.930;2023-09-07T22:11:42;5.95;;;5.18;;
75356;SDS011;63946;51.986;5.930;2023-09-07T22:14:11;6.30;;;5.70;;
75356;SDS011;63946;51.986;5.930;2023-09-07T22:16:39;6.18;;;5.57;;
75356;SDS011;63946;51.986;5.930;2023-09-07T22:19:08;5.75;;;5.15;;
75356;SDS011;63946;51.986;5.930;2023-09-07T22:21:37;5.38;;;4.85;;
75356;SDS011;63946;51.986;5.930;2023-09-07T22:24:06;5.45;;;4.72;;
75356;SDS011;63946;51.986;5.930;2023-09-07T22:26:36;5.70;;;5.13;;
75356;SDS011;63946;51.986;5.930;2023-09-07T22:29:05;6.38;;;5.03;;
75356;SDS011;63946;51.986;5.930;2023-09-07T22:31:37;6.20;;;5.60;;
75356;SDS011;63946;51.986;5.930;2023-09-07T22:34:06;5.53;;;5.00;;
75356;SDS011;63946;51.986;5.930;2023-09-07T22:36:35;9.55;;;5.50;;
75356;SDS011;63946;51.986;5.930;2023-09-07T22:39:04;11.23;;;6.05;;
75356;SDS011;63946;51.986;5.930;2023-09-07T22:41:33;7.78;;;5.72;;
75356;SDS011;63946;51.986;5.930;2023-09-07T22:44:02;7.97;;;5.28;;
75356;SDS011;63946;51.986;5.930;2023-09-07T22:46:31;9.70;;;5.25;;
75356;SDS011;63946;51.986;5.930;2023-09-07T22:49:00;6.28;;;5.68;;
75356;SDS011;63946;51.986;5.930;2023-09-07T22:51:29;5.50;;;4.82;;
75356;SDS011;63946;51.986;5.930;2023-09-07T22:53:59;6.47;;;5.05;;
75356;SDS011;63946;51.986;5.930;2023-09-07T22:56:28;6.22;;;4.97;;
75356;SDS011;63946;51.986;5.930;2023-09-07T22:58:57;7.63;;;5.57;;
75356;SDS011;63946;51.986;5.930;2023-09-07T23:03:56;5.57;;;5.07;;
75356;SDS011;63946;51.986;5.930;2023-09-07T23:06:25;6.22;;;5.35;;
75356;SDS011;63946;51.986;5.930;2023-09-07T23:08:54;6.30;;;5.30;;
75356;SDS011;63946;51.986;5.930;2023-09-07T23:11:23;5.93;;;5.10;;
75356;SDS011;63946;51.986;5.930;2023-09-07T23:13:51;7.05;;;5.28;;
75356;SDS011;63946;51.986;5.930;2023-09-07T23:16:20;6.72;;;5.45;;
75356;SDS011;63946;51.986;5.930;2023-09-07T23:18:49;6.50;;;5.90;;
75356;SDS011;63946;51.986;5.930;2023-09-07T23:21:18;6.20;;;5.32;;
75356;SDS011;63946;51.986;5.930;2023-09-07T23:23:47;5.88;;;5.05;;
75356;SDS011;63946;51.986;5.930;2023-09-07T23:26:16;6.00;;;5.40;;
75356;SDS011;63946;51.986;5.930;2023-09-07T23:28:46;7.00;;;5.50;;
75356;SDS011;63946;51.986;5.930;2023-09-07T23:31:15;6.00;;;5.40;;
75356;SDS011;63946;51.986;5.930;2023-09-07T23:33:47;6.22;;;5.63;;
75356;SDS011;63946;51.986;5.930;2023-09-07T23:36:17;6.55;;;5.68;;
75356;SDS011;63946;51.986;5.930;2023-09-07T23:38:49;6.60;;;6.00;;
75356;SDS011;63946;51.986;5.930;2023-09-07T23:41:21;5.93;;;5.20;;
75356;SDS011;63946;51.986;5.930;2023-09-07T23:43:50;6.00;;;5.50;;
75356;SDS011;63946;51.986;5.930;2023-09-07T23:46:19;7.43;;;5.43;;
75356;SDS011;63946;51.986;5.930;2023-09-07T23:48:47;9.43;;;6.18;;
75356;SDS011;63946;51.986;5.930;2023-09-07T23:51:16;6.93;;;5.75;;
75356;SDS011;63946;51.986;5.930;2023-09-07T23:53:45;6.25;;;5.65;;
75356;SDS011;63946;51.986;5.930;2023-09-07T23:56:14;7.22;;;5.80;;
75356;SDS011;63946;51.986;5.930;2023-09-07T23:58:43;6.13;;;5.32;;
